sensor_id;sensor_type;location;lat;lon;timestamp;P1;durP1;ratioP1;P2;durP2;ratioP2
2872;SDS011;1444;49.166;7.312;2022-10-17T00:00:43;15.87;;;9.67;;
2872;SDS011;1444;49.166;7.312;2022-10-17T00:03:10;17.30;;;10.53;;
2872;SDS011;1444;49.166;7.312;2022-10-17T00:05:39;20.17;;;7.70;;
2872;SDS011;1444;49.166;7.312;2022-10-17T00:08:06;21.40;;;13.43;;
2872;SDS011;1444;49.166;7.312;2022-10-17T00:10:33;11.97;;;8.37;;
2872;SDS011;1444;49.166;7.312;2022-10-17T00:13:01;24.13;;;12.20;;
2872;SDS011;1444;49.166;7.312;2022-10-17T00:15:29;14.37;;;9.33;;
2872;SDS011;1444;49.166;7.312;2022-10-17T00:17:56;19.20;;;10.57;;
2872;SDS011;1444;49.166;7.312;2022-10-17T00:20:23;18.60;;;8.73;;
2872;SDS011;1444;49.166;7.312;2022-10-17T00:22:50;20.40;;;10.00;;
2872;SDS011;1444;49.166;7.312;2022-10-17T00:25:17;18.77;;;10.10;;
2872;SDS011;1444;49.166;7.312;2022-10-17T00:27:45;20.87;;;9.87;;
2872;SDS011;1444;49.166;7.312;2022-10-17T00:30:12;16.83;;;10.77;;
2872;SDS011;1444;49.166;7.312;2022-10-17T00:32:41;11.30;;;8.27;;
2872;SDS011;1444;49.166;7.312;2022-10-17T00:35:08;21.90;;;10.80;;
2872;SDS011;1444;49.166;7.312;2022-10-17T00:37:35;18.33;;;10.63;;
2872;SDS011;1444;49.166;7.312;2022-10-17T00:40:03;19.17;;;12.40;;
2872;SDS011;1444;49.166;7.312;2022-10-17T00:42:31;13.53;;;7.50;;
2872;SDS011;1444;49.166;7.312;2022-10-17T00:47:44;16.80;;;8.07;;
2872;SDS011;1444;49.166;7.312;2022-10-17T00:50:13;14.93;;;8.10;;
2872;SDS011;1444;49.166;7.312;2022-10-17T00:52:42;13.33;;;8.90;;
2872;SDS011;1444;49.166;7.312;2022-10-17T00:55:12;16.30;;;9.87;;
2872;SDS011;1444;49.166;7.312;2022-10-17T00:57:41;12.77;;;7.83;;
2872;SDS011;1444;49.166;7.312;2022-10-17T01:00:10;13.43;;;8.23;;
2872;SDS011;1444;49.166;7.312;2022-10-17T01:02:37;15.00;;;8.97;;
2872;SDS011;1444;49.166;7.312;2022-10-17T01:05:06;23.37;;;12.00;;
2872;SDS011;1444;49.166;7.312;2022-10-17T01:07:34;27.77;;;8.63;;
2872;SDS011;1444;49.166;7.312;2022-10-17T01:10:03;25.97;;;12.00;;
2872;SDS011;1444;49.166;7.312;2022-10-17T01:12:32;12.60;;;7.80;;
2872;SDS011;1444;49.166;7.312;2022-10-17T01:15:08;16.73;;;10.87;;
2872;SDS011;1444;49.166;7.312;2022-10-17T01:17:44;19.77;;;9.67;;
2872;SDS011;1444;49.166;7.312;2022-10-17T01:20:33;18.40;;;8.00;;
2872;SDS011;1444;49.166;7.312;2022-10-17T01:23:22;19.30;;;8.77;;
2872;SDS011;1444;49.166;7.312;2022-10-17T01:25:55;18.37;;;11.40;;
2872;SDS011;1444;49.166;7.312;2022-10-17T01:28:33;12.00;;;7.50;;
2872;SDS011;1444;49.166;7.312;2022-10-17T01:31:16;10.90;;;7.93;;
2872;SDS011;1444;49.166;7.312;2022-10-17T01:33:51;14.13;;;8.40;;
2872;SDS011;1444;49.166;7.312;2022-10-17T01:36:26;12.73;;;8.60;;
2872;SDS011;1444;49.166;7.312;2022-10-17T01:39:01;27.57;;;12.70;;
2872;SDS011;1444;49.166;7.312;2022-10-17T01:41:37;14.40;;;9.43;;
2872;SDS011;1444;49.166;7.312;2022-10-17T01:44:09;14.33;;;8.70;;
2872;SDS011;1444;49.166;7.312;2022-10-17T01:46:38;15.90;;;9.17;;
2872;SDS011;1444;49.166;7.312;2022-10-17T01:49:09;18.30;;;11.20;;
2872;SDS011;1444;49.166;7.312;2022-10-17T01:51:39;9.47;;;6.83;;
2872;SDS011;1444;49.166;7.312;2022-10-17T01:54:12;16.37;;;9.53;;
2872;SDS011;1444;49.166;7.312;2022-10-17T01:56:44;16.77;;;9.20;;
2872;SDS011;1444;49.166;7.312;2022-10-17T01:59:13;14.07;;;9.17;;
2872;SDS011;1444;49.166;7.312;2022-10-17T02:01:47;18.67;;;11.33;;
2872;SDS011;1444;49.166;7.312;2022-10-17T02:04:17;16.23;;;7.33;;
2872;SDS011;1444;49.166;7.312;2022-10-17T02:06:44;19.50;;;9.73;;
2872;SDS011;1444;49.166;7.312;2022-10-17T02:09:18;13.30;;;8.80;;
2872;SDS011;1444;49.166;7.312;2022-10-17T02:11:52;17.70;;;8.60;;
2872;SDS011;1444;49.166;7.312;2022-10-17T02:14:31;14.63;;;9.40;;
2872;SDS011;1444;49.166;7.312;2022-10-17T02:17:07;20.27;;;11.30;;
2872;SDS011;1444;49.166;7.312;2022-10-17T02:19:45;17.97;;;8.10;;
2872;SDS011;1444;49.166;7.312;2022-10-17T02:22:22;13.83;;;8.97;;
2872;SDS011;1444;49.166;7.312;2022-10-17T02:24:57;19.87;;;12.07;;
2872;SDS011;1444;49.166;7.312;2022-10-17T02:27:31;15.13;;;6.10;;
2872;SDS011;1444;49.166;7.312;2022-10-17T02:30:04;21.20;;;12.77;;
2872;SDS011;1444;49.166;7.312;2022-10-17T02:32:36;16.90;;;6.60;;
2872;SDS011;1444;49.166;7.312;2022-10-17T02:35:10;14.73;;;9.90;;
2872;SDS011;1444;49.166;7.312;2022-10-17T02:37:39;12.80;;;8.93;;
2872;SDS011;1444;49.166;7.312;2022-10-17T02:40:09;13.70;;;8.53;;
2872;SDS011;1444;49.166;7.312;2022-10-17T02:42:39;9.20;;;7.10;;
2872;SDS011;1444;49.166;7.312;2022-10-17T02:45:09;12.07;;;7.40;;
2872;SDS011;1444;49.166;7.312;2022-10-17T02:47:40;12.00;;;7.23;;
2872;SDS011;1444;49.166;7.312;2022-10-17T02:50:14;14.53;;;8.60;;
2872;SDS011;1444;49.166;7.312;2022-10-17T02:52:43;19.60;;;7.70;;
2872;SDS011;1444;49.166;7.312;2022-10-17T02:55:15;16.67;;;8.57;;
2872;SDS011;1444;49.166;7.312;2022-10-17T02:57:43;14.53;;;7.80;;
2872;SDS011;1444;49.166;7.312;2022-10-17T03:00:14;11.23;;;6.97;;
2872;SDS011;1444;49.166;7.312;2022-10-17T03:02:45;15.93;;;9.97;;
2872;SDS011;1444;49.166;7.312;2022-10-17T03:05:15;18.97;;;8.23;;
2872;SDS011;1444;49.166;7.312;2022-10-17T03:07:43;13.80;;;8.33;;
2872;SDS011;1444;49.166;7.312;2022-10-17T03:10:10;11.83;;;7.60;;
2872;SDS011;1444;49.166;7.312;2022-10-17T03:12:37;19.93;;;8.80;;
2872;SDS011;1444;49.166;7.312;2022-10-17T03:15:04;19.90;;;10.77;;
2872;SDS011;1444;49.166;7.312;2022-10-17T03:17:32;11.80;;;7.00;;
2872;SDS011;1444;49.166;7.312;2022-10-17T03:20:01;22.33;;;10.73;;
2872;SDS011;1444;49.166;7.312;2022-10-17T03:22:29;14.60;;;7.70;;
2872;SDS011;1444;49.166;7.312;2022-10-17T03:24:56;19.23;;;10.13;;
2872;SDS011;1444;49.166;7.312;2022-10-17T03:27:23;14.67;;;7.23;;
2872;SDS011;1444;49.166;7.312;2022-10-17T03:29:50;21.23;;;9.77;;
2872;SDS011;1444;49.166;7.312;2022-10-17T03:32:16;11.47;;;7.47;;
2872;SDS011;1444;49.166;7.312;2022-10-17T03:34:43;17.13;;;8.23;;
2872;SDS011;1444;49.166;7.312;2022-10-17T03:37:11;15.40;;;8.63;;
2872;SDS011;1444;49.166;7.312;2022-10-17T03:39:38;19.93;;;10.63;;
2872;SDS011;1444;49.166;7.312;2022-10-17T03:42:05;29.17;;;11.07;;
2872;SDS011;1444;49.166;7.312;2022-10-17T03:44:31;11.77;;;7.60;;
2872;SDS011;1444;49.166;7.312;2022-10-17T03:46:58;17.77;;;11.23;;
2872;SDS011;1444;49.166;7.312;2022-10-17T03:49:25;19.50;;;10.77;;
2872;SDS011;1444;49.166;7.312;2022-10-17T03:51:51;20.57;;;12.50;;
2872;SDS011;1444;49.166;7.312;2022-10-17T03:54:19;36.77;;;11.27;;
2872;SDS011;1444;49.166;7.312;2022-10-17T03:56:46;17.97;;;8.87;;
2872;SDS011;1444;49.166;7.312;2022-10-17T03:59:13;17.00;;;10.93;;
2872;SDS011;1444;49.166;7.312;2022-10-17T04:01:40;21.33;;;8.83;;
2872;SDS011;1444;49.166;7.312;2022-10-17T04:04:07;18.27;;;8.87;;
2872;SDS011;1444;49.166;7.312;2022-10-17T04:06:35;13.00;;;7.80;;
2872;SDS011;1444;49.166;7.312;2022-10-17T04:09:02;29.00;;;15.53;;
2872;SDS011;1444;49.166;7.312;2022-10-17T04:11:31;17.80;;;8.23;;
2872;SDS011;1444;49.166;7.312;2022-10-17T04:13:58;27.10;;;14.30;;
2872;SDS011;1444;49.166;7.312;2022-10-17T04:16:25;17.13;;;8.90;;
2872;SDS011;1444;49.166;7.312;2022-10-17T04:18:52;23.43;;;9.97;;
2872;SDS011;1444;49.166;7.312;2022-10-17T04:21:20;13.23;;;7.63;;
2872;SDS011;1444;49.166;7.312;2022-10-17T04:23:51;21.00;;;7.73;;
2872;SDS011;1444;49.166;7.312;2022-10-17T04:26:18;19.77;;;10.23;;
2872;SDS011;1444;49.166;7.312;2022-10-17T04:28:46;15.23;;;8.63;;
2872;SDS011;1444;49.166;7.312;2022-10-17T04:31:13;26.97;;;7.90;;
2872;SDS011;1444;49.166;7.312;2022-10-17T04:33:40;14.63;;;8.80;;
2872;SDS011;1444;49.166;7.312;2022-10-17T04:36:09;28.00;;;12.30;;
2872;SDS011;1444;49.166;7.312;2022-10-17T04:38:37;21.40;;;6.87;;
2872;SDS011;1444;49.166;7.312;2022-10-17T04:41:05;26.30;;;13.20;;
2872;SDS011;1444;49.166;7.312;2022-10-17T04:43:34;19.50;;;8.07;;
2872;SDS011;1444;49.166;7.312;2022-10-17T04:46:04;25.60;;;10.53;;
2872;SDS011;1444;49.166;7.312;2022-10-17T04:48:32;9.83;;;6.47;;
2872;SDS011;1444;49.166;7.312;2022-10-17T04:50:59;20.47;;;10.23;;
2872;SDS011;1444;49.166;7.312;2022-10-17T04:53:29;15.00;;;6.73;;
2872;SDS011;1444;49.166;7.312;2022-10-17T04:55:57;32.43;;;15.87;;
2872;SDS011;1444;49.166;7.312;2022-10-17T04:58:24;17.43;;;10.03;;
2872;SDS011;1444;49.166;7.312;2022-10-17T05:00:51;19.93;;;10.57;;
2872;SDS011;1444;49.166;7.312;2022-10-17T05:03:19;12.53;;;7.33;;
2872;SDS011;1444;49.166;7.312;2022-10-17T05:05:46;16.73;;;9.33;;
2872;SDS011;1444;49.166;7.312;2022-10-17T05:08:13;15.60;;;9.23;;
2872;SDS011;1444;49.166;7.312;2022-10-17T05:10:41;14.03;;;7.70;;
2872;SDS011;1444;49.166;7.312;2022-10-17T05:13:10;16.80;;;9.43;;
2872;SDS011;1444;49.166;7.312;2022-10-17T05:15:36;16.27;;;9.30;;
2872;SDS011;1444;49.166;7.312;2022-10-17T05:18:04;26.67;;;13.33;;
2872;SDS011;1444;49.166;7.312;2022-10-17T05:20:33;18.90;;;7.83;;
2872;SDS011;1444;49.166;7.312;2022-10-17T05:23:00;22.73;;;12.20;;
2872;SDS011;1444;49.166;7.312;2022-10-17T05:25:27;18.83;;;9.93;;
2872;SDS011;1444;49.166;7.312;2022-10-17T05:27:54;21.63;;;10.27;;
2872;SDS011;1444;49.166;7.312;2022-10-17T05:30:21;13.33;;;7.70;;
2872;SDS011;1444;49.166;7.312;2022-10-17T05:32:50;22.33;;;9.90;;
2872;SDS011;1444;49.166;7.312;2022-10-17T05:35:17;16.27;;;9.37;;
2872;SDS011;1444;49.166;7.312;2022-10-17T05:37:45;15.60;;;9.37;;
2872;SDS011;1444;49.166;7.312;2022-10-17T05:40:12;14.90;;;8.67;;
2872;SDS011;1444;49.166;7.312;2022-10-17T05:42:39;9.80;;;5.70;;
2872;SDS011;1444;49.166;7.312;2022-10-17T05:45:10;26.27;;;10.70;;
2872;SDS011;1444;49.166;7.312;2022-10-17T05:47:37;13.20;;;7.10;;
2872;SDS011;1444;49.166;7.312;2022-10-17T05:50:04;21.60;;;9.13;;
2872;SDS011;1444;49.166;7.312;2022-10-17T05:52:31;11.03;;;7.20;;
2872;SDS011;1444;49.166;7.312;2022-10-17T05:54:59;31.43;;;14.27;;
2872;SDS011;1444;49.166;7.312;2022-10-17T05:57:26;23.03;;;8.63;;
2872;SDS011;1444;49.166;7.312;2022-10-17T05:59:53;19.07;;;9.77;;
2872;SDS011;1444;49.166;7.312;2022-10-17T06:02:19;18.63;;;10.13;;
2872;SDS011;1444;49.166;7.312;2022-10-17T06:04:46;20.47;;;9.57;;
2872;SDS011;1444;49.166;7.312;2022-10-17T06:07:14;15.50;;;8.73;;
2872;SDS011;1444;49.166;7.312;2022-10-17T06:09:41;12.60;;;7.77;;
2872;SDS011;1444;49.166;7.312;2022-10-17T06:12:09;17.73;;;8.07;;
2872;SDS011;1444;49.166;7.312;2022-10-17T06:14:36;13.67;;;6.97;;
2872;SDS011;1444;49.166;7.312;2022-10-17T06:17:02;24.43;;;12.90;;
2872;SDS011;1444;49.166;7.312;2022-10-17T06:19:29;24.77;;;9.93;;
2872;SDS011;1444;49.166;7.312;2022-10-17T06:21:56;27.73;;;16.00;;
2872;SDS011;1444;49.166;7.312;2022-10-17T06:24:22;32.93;;;12.83;;
2872;SDS011;1444;49.166;7.312;2022-10-17T06:26:49;19.20;;;9.30;;
2872;SDS011;1444;49.166;7.312;2022-10-17T06:29:17;17.77;;;9.23;;
2872;SDS011;1444;49.166;7.312;2022-10-17T06:31:44;17.93;;;10.30;;
2872;SDS011;1444;49.166;7.312;2022-10-17T06:34:11;23.33;;;9.20;;
2872;SDS011;1444;49.166;7.312;2022-10-17T06:36:37;16.07;;;10.20;;
2872;SDS011;1444;49.166;7.312;2022-10-17T06:39:04;27.73;;;13.57;;
2872;SDS011;1444;49.166;7.312;2022-10-17T06:41:31;14.30;;;7.57;;
2872;SDS011;1444;49.166;7.312;2022-10-17T06:43:58;29.73;;;14.97;;
2872;SDS011;1444;49.166;7.312;2022-10-17T06:46:26;19.43;;;11.33;;
2872;SDS011;1444;49.166;7.312;2022-10-17T06:48:53;27.20;;;13.43;;
2872;SDS011;1444;49.166;7.312;2022-10-17T06:51:20;19.43;;;9.37;;
2872;SDS011;1444;49.166;7.312;2022-10-17T06:53:47;20.70;;;10.20;;
2872;SDS011;1444;49.166;7.312;2022-10-17T06:56:14;23.73;;;10.63;;
2872;SDS011;1444;49.166;7.312;2022-10-17T06:58:40;16.77;;;9.30;;
2872;SDS011;1444;49.166;7.312;2022-10-17T07:01:08;24.33;;;13.33;;
2872;SDS011;1444;49.166;7.312;2022-10-17T07:03:38;21.43;;;10.30;;
2872;SDS011;1444;49.166;7.312;2022-10-17T07:06:06;25.13;;;15.83;;
2872;SDS011;1444;49.166;7.312;2022-10-17T07:08:34;11.00;;;8.33;;
2872;SDS011;1444;49.166;7.312;2022-10-17T07:11:07;24.00;;;11.63;;
2872;SDS011;1444;49.166;7.312;2022-10-17T07:13:34;11.23;;;6.27;;
2872;SDS011;1444;49.166;7.312;2022-10-17T07:16:01;25.73;;;13.07;;
2872;SDS011;1444;49.166;7.312;2022-10-17T07:18:28;18.90;;;7.20;;
2872;SDS011;1444;49.166;7.312;2022-10-17T07:20:57;10.70;;;7.77;;
2872;SDS011;1444;49.166;7.312;2022-10-17T07:23:23;10.40;;;7.37;;
2872;SDS011;1444;49.166;7.312;2022-10-17T07:25:50;19.87;;;9.83;;
2872;SDS011;1444;49.166;7.312;2022-10-17T07:28:17;11.87;;;7.60;;
2872;SDS011;1444;49.166;7.312;2022-10-17T07:30:44;13.27;;;6.67;;
2872;SDS011;1444;49.166;7.312;2022-10-17T07:33:10;6.97;;;6.27;;
2872;SDS011;1444;49.166;7.312;2022-10-17T07:35:37;12.70;;;9.10;;
2872;SDS011;1444;49.166;7.312;2022-10-17T07:38:07;9.50;;;7.07;;
2872;SDS011;1444;49.166;7.312;2022-10-17T07:40:34;9.73;;;5.57;;
2872;SDS011;1444;49.166;7.312;2022-10-17T07:43:00;13.00;;;8.37;;
2872;SDS011;1444;49.166;7.312;2022-10-17T07:45:27;7.63;;;5.90;;
2872;SDS011;1444;49.166;7.312;2022-10-17T07:47:55;9.03;;;6.23;;
2872;SDS011;1444;49.166;7.312;2022-10-17T07:50:22;6.70;;;5.43;;
2872;SDS011;1444;49.166;7.312;2022-10-17T07:52:49;22.67;;;6.30;;
2872;SDS011;1444;49.166;7.312;2022-10-17T07:55:17;8.73;;;5.60;;
2872;SDS011;1444;49.166;7.312;2022-10-17T07:57:44;7.43;;;5.73;;
2872;SDS011;1444;49.166;7.312;2022-10-17T08:00:11;12.13;;;5.30;;
2872;SDS011;1444;49.166;7.312;2022-10-17T08:02:38;6.33;;;5.73;;
2872;SDS011;1444;49.166;7.312;2022-10-17T08:05:05;8.10;;;7.30;;
2872;SDS011;1444;49.166;7.312;2022-10-17T08:07:32;10.03;;;5.43;;
2872;SDS011;1444;49.166;7.312;2022-10-17T08:09:59;5.87;;;5.27;;
2872;SDS011;1444;49.166;7.312;2022-10-17T08:12:27;6.43;;;5.80;;
2872;SDS011;1444;49.166;7.312;2022-10-17T08:14:56;19.33;;;4.97;;
2872;SDS011;1444;49.166;7.312;2022-10-17T08:17:22;6.40;;;5.03;;
2872;SDS011;1444;49.166;7.312;2022-10-17T08:19:49;4.50;;;4.13;;
2872;SDS011;1444;49.166;7.312;2022-10-17T08:22:16;21.10;;;6.10;;
2872;SDS011;1444;49.166;7.312;2022-10-17T08:24:43;5.23;;;4.73;;
2872;SDS011;1444;49.166;7.312;2022-10-17T08:27:10;9.87;;;6.93;;
2872;SDS011;1444;49.166;7.312;2022-10-17T08:29:39;19.40;;;4.60;;
2872;SDS011;1444;49.166;7.312;2022-10-17T08:32:06;19.40;;;8.63;;
2872;SDS011;1444;49.166;7.312;2022-10-17T08:34:34;5.60;;;5.03;;
2872;SDS011;1444;49.166;7.312;2022-10-17T08:37:00;11.13;;;6.80;;
2872;SDS011;1444;49.166;7.312;2022-10-17T08:39:27;10.80;;;6.23;;
2872;SDS011;1444;49.166;7.312;2022-10-17T08:41:58;14.43;;;8.67;;
2872;SDS011;1444;49.166;7.312;2022-10-17T08:44:34;5.73;;;5.13;;
2872;SDS011;1444;49.166;7.312;2022-10-17T08:47:12;6.27;;;5.63;;
2872;SDS011;1444;49.166;7.312;2022-10-17T08:49:47;8.80;;;5.97;;
2872;SDS011;1444;49.166;7.312;2022-10-17T08:52:21;9.93;;;6.63;;
2872;SDS011;1444;49.166;7.312;2022-10-17T08:54:54;14.57;;;8.23;;
2872;SDS011;1444;49.166;7.312;2022-10-17T08:57:21;12.70;;;7.03;;
2872;SDS011;1444;49.166;7.312;2022-10-17T08:59:51;9.03;;;7.20;;
2872;SDS011;1444;49.166;7.312;2022-10-17T09:02:27;9.50;;;7.37;;
2872;SDS011;1444;49.166;7.312;2022-10-17T09:05:24;13.40;;;6.90;;
2872;SDS011;1444;49.166;7.312;2022-10-17T09:08:02;10.97;;;7.07;;
2872;SDS011;1444;49.166;7.312;2022-10-17T09:10:37;26.53;;;7.50;;
2872;SDS011;1444;49.166;7.312;2022-10-17T09:13:16;9.90;;;6.73;;
2872;SDS011;1444;49.166;7.312;2022-10-17T09:16:01;12.40;;;6.13;;
2872;SDS011;1444;49.166;7.312;2022-10-17T09:18:36;9.00;;;6.20;;
2872;SDS011;1444;49.166;7.312;2022-10-17T09:21:09;14.10;;;7.77;;
2872;SDS011;1444;49.166;7.312;2022-10-17T09:23:43;8.43;;;5.70;;
2872;SDS011;1444;49.166;7.312;2022-10-17T09:26:12;17.30;;;10.40;;
2872;SDS011;1444;49.166;7.312;2022-10-17T09:28:39;9.03;;;5.87;;
2872;SDS011;1444;49.166;7.312;2022-10-17T09:31:11;13.60;;;8.17;;
2872;SDS011;1444;49.166;7.312;2022-10-17T09:33:42;16.30;;;5.67;;
2872;SDS011;1444;49.166;7.312;2022-10-17T09:36:12;11.90;;;9.30;;
2872;SDS011;1444;49.166;7.312;2022-10-17T09:38:41;8.67;;;6.43;;
2872;SDS011;1444;49.166;7.312;2022-10-17T09:41:14;11.40;;;6.70;;
2872;SDS011;1444;49.166;7.312;2022-10-17T09:43:43;9.07;;;6.10;;
2872;SDS011;1444;49.166;7.312;2022-10-17T09:46:14;10.83;;;7.10;;
2872;SDS011;1444;49.166;7.312;2022-10-17T09:48:47;10.07;;;6.70;;
2872;SDS011;1444;49.166;7.312;2022-10-17T09:51:16;13.23;;;7.30;;
2872;SDS011;1444;49.166;7.312;2022-10-17T09:53:45;12.13;;;5.57;;
2872;SDS011;1444;49.166;7.312;2022-10-17T09:56:15;12.13;;;9.27;;
2872;SDS011;1444;49.166;7.312;2022-10-17T09:58:44;7.23;;;5.40;;
2872;SDS011;1444;49.166;7.312;2022-10-17T10:01:17;19.60;;;8.83;;
2872;SDS011;1444;49.166;7.312;2022-10-17T10:03:46;12.07;;;7.60;;
2872;SDS011;1444;49.166;7.312;2022-10-17T10:06:13;28.50;;;8.03;;
2872;SDS011;1444;49.166;7.312;2022-10-17T10:08:48;12.37;;;5.87;;
2872;SDS011;1444;49.166;7.312;2022-10-17T10:11:17;11.20;;;7.87;;
2872;SDS011;1444;49.166;7.312;2022-10-17T10:13:45;6.03;;;4.60;;
2872;SDS011;1444;49.166;7.312;2022-10-17T10:16:19;16.13;;;9.40;;
2872;SDS011;1444;49.166;7.312;2022-10-17T10:18:48;14.17;;;6.57;;
2872;SDS011;1444;49.166;7.312;2022-10-17T10:21:17;9.33;;;7.50;;
2872;SDS011;1444;49.166;7.312;2022-10-17T10:24:01;8.80;;;7.30;;
2872;SDS011;1444;49.166;7.312;2022-10-17T10:26:31;12.97;;;5.70;;
2872;SDS011;1444;49.166;7.312;2022-10-17T10:29:02;4.70;;;4.27;;
2872;SDS011;1444;49.166;7.312;2022-10-17T10:31:34;9.03;;;4.37;;
2872;SDS011;1444;49.166;7.312;2022-10-17T10:34:11;8.77;;;4.80;;
2872;SDS011;1444;49.166;7.312;2022-10-17T10:36:45;13.20;;;5.17;;
2872;SDS011;1444;49.166;7.312;2022-10-17T10:39:25;13.30;;;5.30;;
2872;SDS011;1444;49.166;7.312;2022-10-17T10:41:59;14.30;;;4.10;;
2872;SDS011;1444;49.166;7.312;2022-10-17T10:44:28;12.83;;;5.60;;
2872;SDS011;1444;49.166;7.312;2022-10-17T10:47:13;3.90;;;3.60;;
2872;SDS011;1444;49.166;7.312;2022-10-17T10:49:43;4.87;;;3.70;;
2872;SDS011;1444;49.166;7.312;2022-10-17T10:52:11;11.40;;;5.17;;
2872;SDS011;1444;49.166;7.312;2022-10-17T10:54:47;12.00;;;4.47;;
2872;SDS011;1444;49.166;7.312;2022-10-17T10:57:19;6.17;;;3.80;;
2872;SDS011;1444;49.166;7.312;2022-10-17T10:59:50;7.83;;;4.00;;
2872;SDS011;1444;49.166;7.312;2022-10-17T11:02:24;8.10;;;4.33;;
2872;SDS011;1444;49.166;7.312;2022-10-17T11:04:56;12.27;;;4.60;;
2872;SDS011;1444;49.166;7.312;2022-10-17T11:07:28;3.73;;;3.43;;
2872;SDS011;1444;49.166;7.312;2022-10-17T11:09:57;7.83;;;3.27;;
2872;SDS011;1444;49.166;7.312;2022-10-17T11:12:31;8.63;;;4.10;;
2872;SDS011;1444;49.166;7.312;2022-10-17T11:15:01;9.93;;;4.07;;
2872;SDS011;1444;49.166;7.312;2022-10-17T11:17:48;11.67;;;4.63;;
2872;SDS011;1444;49.166;7.312;2022-10-17T11:20:21;5.07;;;3.23;;
2872;SDS011;1444;49.166;7.312;2022-10-17T11:22:54;11.33;;;3.87;;
2872;SDS011;1444;49.166;7.312;2022-10-17T11:25:30;7.13;;;3.63;;
2872;SDS011;1444;49.166;7.312;2022-10-17T11:27:58;4.43;;;2.80;;
2872;SDS011;1444;49.166;7.312;2022-10-17T11:30:27;3.57;;;3.27;;
2872;SDS011;1444;49.166;7.312;2022-10-17T11:32:59;4.00;;;3.50;;
2872;SDS011;1444;49.166;7.312;2022-10-17T11:35:30;11.83;;;3.80;;
2872;SDS011;1444;49.166;7.312;2022-10-17T11:38:01;3.40;;;3.10;;
2872;SDS011;1444;49.166;7.312;2022-10-17T11:40:39;7.53;;;4.70;;
2872;SDS011;1444;49.166;7.312;2022-10-17T11:43:10;5.60;;;3.23;;
2872;SDS011;1444;49.166;7.312;2022-10-17T11:45:41;6.80;;;3.93;;
2872;SDS011;1444;49.166;7.312;2022-10-17T11:48:13;9.00;;;3.97;;
2872;SDS011;1444;49.166;7.312;2022-10-17T11:50:44;3.10;;;2.80;;
2872;SDS011;1444;49.166;7.312;2022-10-17T11:53:15;2.97;;;2.70;;
2872;SDS011;1444;49.166;7.312;2022-10-17T11:55:44;3.30;;;3.03;;
2872;SDS011;1444;49.166;7.312;2022-10-17T11:58:15;10.03;;;3.40;;
2872;SDS011;1444;49.166;7.312;2022-10-17T12:00:52;10.20;;;3.90;;
2872;SDS011;1444;49.166;7.312;2022-10-17T12:03:28;5.07;;;4.20;;
2872;SDS011;1444;49.166;7.312;2022-10-17T12:06:07;10.33;;;3.50;;
2872;SDS011;1444;49.166;7.312;2022-10-17T12:08:40;7.43;;;3.60;;
2872;SDS011;1444;49.166;7.312;2022-10-17T12:11:15;11.53;;;3.90;;
2872;SDS011;1444;49.166;7.312;2022-10-17T12:13:52;7.80;;;3.60;;
2872;SDS011;1444;49.166;7.312;2022-10-17T12:19:19;11.30;;;4.77;;
2872;SDS011;1444;49.166;7.312;2022-10-17T12:21:53;4.93;;;3.80;;
2872;SDS011;1444;49.166;7.312;2022-10-17T12:24:25;4.03;;;3.30;;
2872;SDS011;1444;49.166;7.312;2022-10-17T12:29:48;6.80;;;4.00;;
2872;SDS011;1444;49.166;7.312;2022-10-17T12:32:15;9.87;;;3.50;;
2872;SDS011;1444;49.166;7.312;2022-10-17T12:34:51;3.47;;;3.00;;
2872;SDS011;1444;49.166;7.312;2022-10-17T12:43:35;7.07;;;3.97;;
2872;SDS011;1444;49.166;7.312;2022-10-17T12:46:08;5.07;;;3.63;;
2872;SDS011;1444;49.166;7.312;2022-10-17T12:48:58;6.20;;;3.60;;
2872;SDS011;1444;49.166;7.312;2022-10-17T12:51:28;7.23;;;3.47;;
2872;SDS011;1444;49.166;7.312;2022-10-17T12:54:15;10.00;;;3.37;;
2872;SDS011;1444;49.166;7.312;2022-10-17T12:56:43;6.87;;;3.80;;
2872;SDS011;1444;49.166;7.312;2022-10-17T12:59:12;5.13;;;3.00;;
2872;SDS011;1444;49.166;7.312;2022-10-17T13:01:42;14.07;;;4.03;;
2872;SDS011;1444;49.166;7.312;2022-10-17T13:04:12;3.60;;;3.13;;
2872;SDS011;1444;49.166;7.312;2022-10-17T13:06:44;6.43;;;3.47;;
2872;SDS011;1444;49.166;7.312;2022-10-17T13:09:16;5.60;;;3.73;;
2872;SDS011;1444;49.166;7.312;2022-10-17T13:11:48;5.10;;;3.50;;
2872;SDS011;1444;49.166;7.312;2022-10-17T13:14:17;8.83;;;3.70;;
2872;SDS011;1444;49.166;7.312;2022-10-17T13:16:50;11.10;;;5.10;;
2872;SDS011;1444;49.166;7.312;2022-10-17T13:19:18;6.20;;;2.83;;
2872;SDS011;1444;49.166;7.312;2022-10-17T13:21:51;11.50;;;4.23;;
2872;SDS011;1444;49.166;7.312;2022-10-17T13:24:20;5.47;;;3.53;;
2872;SDS011;1444;49.166;7.312;2022-10-17T13:26:48;11.47;;;3.80;;
2872;SDS011;1444;49.166;7.312;2022-10-17T13:29:15;3.30;;;3.00;;
2872;SDS011;1444;49.166;7.312;2022-10-17T13:31:44;9.20;;;3.80;;
2872;SDS011;1444;49.166;7.312;2022-10-17T13:34:18;4.70;;;3.70;;
2872;SDS011;1444;49.166;7.312;2022-10-17T13:36:47;4.13;;;3.53;;
2872;SDS011;1444;49.166;7.312;2022-10-17T13:39:18;7.77;;;3.53;;
2872;SDS011;1444;49.166;7.312;2022-10-17T13:41:48;5.57;;;3.93;;
2872;SDS011;1444;49.166;7.312;2022-10-17T13:44:15;8.40;;;3.67;;
2872;SDS011;1444;49.166;7.312;2022-10-17T13:46:44;12.83;;;4.03;;
2872;SDS011;1444;49.166;7.312;2022-10-17T13:49:15;4.37;;;2.97;;
2872;SDS011;1444;49.166;7.312;2022-10-17T13:51:45;5.60;;;3.30;;
2872;SDS011;1444;49.166;7.312;2022-10-17T13:54:24;12.83;;;3.67;;
2872;SDS011;1444;49.166;7.312;2022-10-17T13:57:02;5.83;;;3.60;;
2872;SDS011;1444;49.166;7.312;2022-10-17T13:59:33;9.50;;;3.23;;
2872;SDS011;1444;49.166;7.312;2022-10-17T14:02:04;5.77;;;3.03;;
2872;SDS011;1444;49.166;7.312;2022-10-17T14:04:36;11.10;;;3.17;;
2872;SDS011;1444;49.166;7.312;2022-10-17T14:07:03;3.33;;;3.03;;
2872;SDS011;1444;49.166;7.312;2022-10-17T14:09:32;6.80;;;3.33;;
2872;SDS011;1444;49.166;7.312;2022-10-17T14:12:00;8.90;;;3.20;;
2872;SDS011;1444;49.166;7.312;2022-10-17T14:14:31;6.43;;;3.60;;
2872;SDS011;1444;49.166;7.312;2022-10-17T14:16:58;4.20;;;3.10;;
2872;SDS011;1444;49.166;7.312;2022-10-17T14:19:26;7.10;;;3.43;;
2872;SDS011;1444;49.166;7.312;2022-10-17T14:22:13;9.73;;;3.20;;
2872;SDS011;1444;49.166;7.312;2022-10-17T14:24:43;13.57;;;3.67;;
2872;SDS011;1444;49.166;7.312;2022-10-17T14:27:24;5.63;;;3.50;;
2872;SDS011;1444;49.166;7.312;2022-10-17T14:29:53;14.90;;;4.20;;
2872;SDS011;1444;49.166;7.312;2022-10-17T14:32:22;4.30;;;3.30;;
2872;SDS011;1444;49.166;7.312;2022-10-17T14:34:51;3.40;;;3.10;;
2872;SDS011;1444;49.166;7.312;2022-10-17T14:37:23;5.23;;;3.43;;
2872;SDS011;1444;49.166;7.312;2022-10-17T14:39:59;5.27;;;3.37;;
2872;SDS011;1444;49.166;7.312;2022-10-17T14:42:27;10.87;;;3.23;;
2872;SDS011;1444;49.166;7.312;2022-10-17T14:44:55;8.57;;;4.07;;
2872;SDS011;1444;49.166;7.312;2022-10-17T14:47:30;3.97;;;3.20;;
2872;SDS011;1444;49.166;7.312;2022-10-17T14:50:04;10.77;;;4.73;;
2872;SDS011;1444;49.166;7.312;2022-10-17T14:52:32;5.30;;;3.63;;
2872;SDS011;1444;49.166;7.312;2022-10-17T14:55:15;9.20;;;3.57;;
2872;SDS011;1444;49.166;7.312;2022-10-17T14:57:47;3.30;;;3.00;;
2872;SDS011;1444;49.166;7.312;2022-10-17T15:00:14;21.70;;;4.63;;
2872;SDS011;1444;49.166;7.312;2022-10-17T15:02:41;7.10;;;3.50;;
2872;SDS011;1444;49.166;7.312;2022-10-17T15:05:09;5.70;;;4.20;;
2872;SDS011;1444;49.166;7.312;2022-10-17T15:07:36;8.00;;;4.53;;
2872;SDS011;1444;49.166;7.312;2022-10-17T15:10:04;6.40;;;3.80;;
2872;SDS011;1444;49.166;7.312;2022-10-17T15:12:32;10.60;;;3.77;;
2872;SDS011;1444;49.166;7.312;2022-10-17T15:14:58;9.47;;;3.90;;
2872;SDS011;1444;49.166;7.312;2022-10-17T15:17:26;11.57;;;3.90;;
2872;SDS011;1444;49.166;7.312;2022-10-17T15:19:55;38.77;;;6.07;;
2872;SDS011;1444;49.166;7.312;2022-10-17T15:22:22;11.63;;;4.03;;
2872;SDS011;1444;49.166;7.312;2022-10-17T15:24:50;6.70;;;3.37;;
2872;SDS011;1444;49.166;7.312;2022-10-17T15:27:18;8.03;;;3.43;;
2872;SDS011;1444;49.166;7.312;2022-10-17T15:29:47;10.97;;;4.03;;
2872;SDS011;1444;49.166;7.312;2022-10-17T15:32:14;4.67;;;3.90;;
2872;SDS011;1444;49.166;7.312;2022-10-17T15:34:41;6.30;;;3.50;;